createdAt,value
2018-03-25T00:01:53.226Z,23.37
2018-03-25T00:04:22.920Z,21.17
2018-03-25T00:06:52.651Z,20.97
2018-03-25T00:09:22.398Z,21.47
2018-03-25T00:11:52.386Z,22.50
2018-03-25T00:14:22.103Z,19.23
2018-03-25T00:16:51.900Z,21.83
2018-03-25T00:19:22.033Z,21.33
2018-03-25T00:21:51.821Z,21.73
2018-03-25T00:24:21.615Z,18.17
2018-03-25T00:26:51.477Z,20.07
2018-03-25T00:29:21.173Z,20.57
2018-03-25T00:31:50.982Z,20.93
2018-03-25T00:34:20.794Z,19.77
2018-03-25T00:36:50.556Z,19.00
2018-03-25T00:39:21.982Z,19.13
2018-03-25T00:41:51.768Z,18.77
2018-03-25T00:44:21.700Z,25.53
2018-03-25T00:46:51.442Z,22.73
2018-03-25T00:49:21.318Z,18.80
2018-03-25T00:51:57.532Z,21.77
2018-03-25T00:54:28.182Z,19.97
2018-03-25T00:56:57.992Z,19.73
2018-03-25T00:59:28.073Z,20.47
2018-03-25T01:01:58.994Z,24.67
2018-03-25T01:04:29.196Z,18.57
2018-03-25T01:06:58.908Z,18.37
2018-03-25T01:09:28.893Z,20.33
2018-03-25T01:12:00.317Z,17.90
2018-03-25T01:14:30.275Z,21.33
2018-03-25T01:17:00.045Z,17.63
2018-03-25T01:19:30.253Z,20.53
2018-03-25T01:22:00.039Z,19.30
2018-03-25T01:24:30.179Z,18.47
2018-03-25T01:27:00.936Z,16.97
2018-03-25T01:29:30.772Z,18.30
2018-03-25T01:32:01.240Z,17.87
2018-03-25T01:34:31.188Z,18.33
2018-03-25T01:37:00.936Z,20.67
2018-03-25T01:39:31.418Z,19.80
2018-03-25T01:42:01.878Z,19.40
2018-03-25T01:44:32.112Z,18.73
2018-03-25T01:47:02.359Z,19.30
2018-03-25T01:49:32.310Z,18.30
2018-03-25T01:52:02.166Z,19.20
2018-03-25T01:54:31.989Z,18.97
2018-03-25T01:57:01.697Z,17.27
2018-03-25T01:59:31.544Z,20.07
2018-03-25T02:02:01.302Z,17.30
2018-03-25T02:04:31.984Z,16.43
2018-03-25T02:07:01.779Z,19.10
2018-03-25T02:09:31.512Z,17.47
2018-03-25T02:12:01.452Z,17.63
2018-03-25T02:14:31.229Z,16.27
2018-03-25T02:17:01.098Z,16.90
2018-03-25T02:19:31.724Z,16.53
2018-03-25T02:22:02.238Z,18.33
2018-03-25T02:24:31.980Z,17.90
2018-03-25T02:27:01.807Z,17.70
2018-03-25T02:29:31.668Z,17.33
2018-03-25T02:32:01.751Z,19.07
2018-03-25T02:34:31.637Z,19.47
2018-03-25T02:37:01.608Z,18.13
2018-03-25T02:39:31.561Z,20.30
2018-03-25T02:42:02.118Z,20.83
2018-03-25T02:44:31.945Z,19.57
2018-03-25T02:47:01.781Z,17.87
2018-03-25T02:49:32.601Z,19.17
2018-03-25T02:52:02.345Z,17.80
2018-03-25T02:54:32.048Z,19.23
2018-03-25T02:57:01.977Z,19.33
2018-03-25T02:59:33.015Z,18.47
2018-03-25T03:02:03.052Z,18.90
2018-03-25T03:04:32.866Z,18.33
2018-03-25T03:07:02.885Z,20.10
2018-03-25T03:09:32.737Z,20.27
2018-03-25T03:12:03.197Z,19.73
2018-03-25T03:14:32.953Z,18.30
2018-03-25T03:17:02.791Z,18.37
2018-03-25T03:19:32.736Z,18.27
2018-03-25T03:22:03.341Z,17.53
2018-03-25T03:24:33.017Z,21.03
2018-03-25T03:27:02.815Z,20.40
2018-03-25T03:29:32.599Z,19.77
2018-03-25T03:32:03.069Z,18.23
2018-03-25T03:34:33.065Z,17.23
2018-03-25T03:37:03.953Z,17.83
2018-03-25T03:39:33.737Z,18.93
2018-03-25T03:42:03.786Z,19.93
2018-03-25T03:44:33.532Z,17.77
2018-03-25T03:47:03.242Z,19.50
2018-03-25T03:49:33.808Z,19.57
2018-03-25T03:52:03.915Z,17.63
2018-03-25T03:54:34.558Z,19.73
2018-03-25T03:57:04.665Z,17.50
2018-03-25T03:59:35.279Z,17.53
2018-03-25T04:02:05.164Z,17.17
2018-03-25T04:04:35.145Z,20.10
2018-03-25T04:07:05.882Z,20.97
2018-03-25T04:09:35.596Z,21.63
2018-03-25T04:12:05.619Z,16.70
2018-03-25T04:14:35.550Z,18.33
2018-03-25T04:17:05.704Z,17.90
2018-03-25T04:19:35.481Z,17.30
2018-03-25T04:22:05.909Z,16.40
2018-03-25T04:24:35.620Z,18.03
2018-03-25T04:27:05.363Z,19.10
2018-03-25T04:29:35.186Z,17.77
2018-03-25T04:32:04.989Z,18.17
2018-03-25T04:34:34.889Z,19.30
2018-03-25T04:37:04.690Z,17.97
2018-03-25T04:39:34.352Z,19.67
2018-03-25T04:42:05.157Z,17.80
2018-03-25T04:44:34.971Z,19.73
2018-03-25T04:47:05.462Z,18.37
2018-03-25T04:49:35.279Z,15.40
2018-03-25T04:52:05.107Z,24.03
2018-03-25T04:54:35.216Z,19.23
2018-03-25T04:57:05.139Z,18.87
2018-03-25T04:59:35.248Z,17.13
2018-03-25T05:02:04.993Z,17.23
2018-03-25T05:04:34.706Z,17.37
2018-03-25T05:07:06.040Z,18.53
2018-03-25T05:09:35.832Z,18.57
2018-03-25T05:12:05.705Z,17.23
2018-03-25T05:14:36.385Z,18.07
2018-03-25T05:17:06.112Z,22.33
2018-03-25T05:19:35.848Z,20.63
2018-03-25T05:22:06.428Z,21.50
2018-03-25T05:24:36.197Z,21.93
2018-03-25T05:27:06.867Z,21.08
2018-03-25T05:29:37.311Z,17.97
2018-03-25T05:32:07.128Z,18.00
2018-03-25T05:34:36.808Z,22.50
2018-03-25T05:37:06.642Z,18.67
2018-03-25T05:39:36.657Z,18.03
2018-03-25T05:42:06.380Z,19.50
2018-03-25T05:44:36.091Z,18.93
2018-03-25T05:47:06.085Z,17.87
2018-03-25T05:49:35.981Z,19.70
2018-03-25T05:52:06.545Z,19.50
2018-03-25T05:54:36.436Z,20.73
2018-03-25T05:57:06.994Z,19.13
2018-03-25T05:59:37.012Z,20.70
2018-03-25T06:02:06.689Z,20.03
2018-03-25T06:04:37.037Z,19.77
2018-03-25T06:07:07.198Z,18.77
2018-03-25T06:09:37.087Z,19.60
2018-03-25T06:12:06.946Z,23.07
2018-03-25T06:14:37.464Z,20.77
2018-03-25T06:17:07.272Z,24.23
2018-03-25T06:19:36.932Z,21.50
2018-03-25T06:22:06.844Z,18.60
2018-03-25T06:24:36.570Z,20.23
2018-03-25T06:27:07.084Z,22.97
2018-03-25T06:29:37.057Z,21.87
2018-03-25T06:32:06.930Z,18.73
2018-03-25T06:34:36.752Z,18.93
2018-03-25T06:37:06.541Z,21.80
2018-03-25T06:39:36.481Z,18.53
2018-03-25T06:42:06.483Z,20.27
2018-03-25T06:44:36.481Z,20.97
2018-03-25T06:47:06.236Z,18.50
2018-03-25T06:49:36.248Z,19.87
2018-03-25T06:52:06.192Z,16.40
2018-03-25T06:54:36.201Z,23.23
2018-03-25T06:57:09.465Z,16.83
2018-03-25T06:59:39.164Z,19.03
2018-03-25T07:02:09.192Z,21.13
2018-03-25T07:04:39.024Z,19.73
2018-03-25T07:07:08.876Z,21.13
2018-03-25T07:09:39.533Z,21.17
2018-03-25T07:12:09.283Z,17.83
2018-03-25T07:14:39.346Z,19.53
2018-03-25T07:17:09.784Z,19.90
2018-03-25T07:19:39.731Z,19.63
2018-03-25T07:22:10.246Z,21.30
2018-03-25T07:24:40.015Z,18.53
2018-03-25T07:27:10.728Z,21.13
2018-03-25T07:29:40.594Z,17.90
2018-03-25T07:32:10.556Z,20.90
2018-03-25T07:34:40.340Z,17.43
2018-03-25T07:37:10.215Z,19.13
2018-03-25T07:39:40.696Z,20.90
2018-03-25T07:42:10.698Z,21.17
2018-03-25T07:44:40.871Z,16.20
2018-03-25T07:47:11.461Z,21.03
2018-03-25T07:49:41.272Z,19.57
2018-03-25T07:52:11.060Z,19.90
2018-03-25T07:54:41.841Z,17.90
2018-03-25T07:57:11.684Z,21.30
2018-03-25T07:59:42.218Z,18.87
2018-03-25T08:02:12.025Z,21.10
2018-03-25T08:04:42.636Z,21.97
2018-03-25T08:07:12.366Z,24.37
2018-03-25T08:09:42.109Z,19.20
2018-03-25T08:12:11.896Z,27.20
2018-03-25T08:14:41.694Z,21.87
2018-03-25T08:17:11.549Z,27.07
2018-03-25T08:19:41.281Z,23.37
2018-03-25T08:22:11.155Z,22.17
2018-03-25T08:24:40.888Z,24.67
2018-03-25T08:27:10.636Z,24.47
2018-03-25T08:29:40.347Z,22.10
2018-03-25T08:32:10.888Z,20.60
2018-03-25T08:34:40.827Z,22.87
2018-03-25T08:37:11.395Z,21.03
2018-03-25T08:39:41.257Z,19.50
2018-03-25T08:42:11.884Z,21.03
2018-03-25T08:44:42.209Z,23.07
2018-03-25T08:47:11.922Z,21.27
2018-03-25T08:49:42.414Z,20.63
2018-03-25T08:52:12.221Z,24.20
2018-03-25T08:54:42.245Z,21.93
2018-03-25T08:57:12.787Z,24.50
2018-03-25T08:59:42.539Z,28.97
2018-03-25T09:02:13.098Z,26.33
2018-03-25T09:04:43.097Z,26.03
2018-03-25T09:07:13.444Z,24.67
2018-03-25T09:09:43.502Z,21.50
2018-03-25T09:12:13.297Z,22.33
2018-03-25T09:14:43.228Z,22.77
2018-03-25T09:17:13.372Z,23.83
2018-03-25T09:19:43.966Z,21.97
2018-03-25T09:22:13.936Z,20.70
2018-03-25T09:24:43.672Z,24.73
2018-03-25T09:27:13.757Z,26.13
2018-03-25T09:29:43.704Z,27.33
2018-03-25T09:32:13.543Z,25.63
2018-03-25T09:34:43.284Z,25.43
2018-03-25T09:37:14.067Z,26.93
2018-03-25T09:39:43.821Z,26.70
2018-03-25T09:42:13.981Z,26.67
2018-03-25T09:44:43.959Z,26.80
2018-03-25T09:47:15.400Z,27.40
2018-03-25T09:49:45.541Z,29.17
2018-03-25T09:52:16.299Z,31.93
2018-03-25T09:54:46.043Z,31.23
2018-03-25T09:57:15.811Z,32.17
2018-03-25T09:59:46.412Z,39.07
2018-03-25T10:02:19.046Z,34.83
2018-03-25T10:04:48.909Z,36.87
2018-03-25T10:07:18.662Z,35.73
2018-03-25T10:09:48.650Z,31.53
2018-03-25T10:12:19.145Z,32.00
2018-03-25T10:14:48.953Z,35.67
2018-03-25T10:17:18.829Z,31.17
2018-03-25T10:19:48.541Z,33.53
2018-03-25T10:22:18.493Z,31.73
2018-03-25T10:24:48.446Z,30.20
2018-03-25T10:27:18.944Z,30.27
2018-03-25T10:29:48.788Z,33.07
2018-03-25T10:32:18.672Z,31.03
2018-03-25T10:34:48.579Z,25.60
2018-03-25T10:37:18.616Z,30.17
2018-03-25T10:39:48.544Z,31.53
2018-03-25T10:42:19.186Z,28.90
2018-03-25T10:44:49.732Z,23.70
2018-03-25T10:47:19.498Z,27.20
2018-03-25T10:49:49.772Z,26.77
2018-03-25T10:52:19.537Z,26.27
2018-03-25T10:54:49.258Z,27.57
2018-03-25T10:57:19.227Z,28.17
2018-03-25T10:59:49.165Z,28.30
2018-03-25T11:02:19.052Z,20.33
2018-03-25T11:04:48.963Z,15.87
2018-03-25T11:07:19.411Z,16.90
2018-03-25T11:09:49.245Z,18.20
2018-03-25T11:12:25.546Z,17.97
2018-03-25T11:14:56.569Z,17.20
2018-03-25T11:17:26.512Z,18.63
2018-03-25T11:19:56.228Z,19.77
2018-03-25T11:22:25.969Z,19.17
2018-03-25T11:24:55.980Z,21.60
2018-03-25T11:27:25.758Z,23.43
2018-03-25T11:29:56.049Z,22.07
2018-03-25T11:32:26.096Z,28.00
2018-03-25T11:34:56.736Z,27.13
2018-03-25T11:37:26.784Z,26.73
2018-03-25T11:39:56.845Z,27.60
2018-03-25T11:42:26.800Z,26.10
2018-03-25T11:44:56.739Z,34.50
2018-03-25T11:47:26.695Z,33.70
2018-03-25T11:49:56.607Z,30.07
2018-03-25T11:52:26.705Z,32.07
2018-03-25T11:54:56.500Z,33.13
2018-03-25T11:57:26.613Z,32.80
2018-03-25T11:59:56.660Z,35.53
2018-03-25T12:02:26.477Z,31.90
2018-03-25T12:04:56.193Z,33.67
2018-03-25T12:07:26.156Z,34.03
2018-03-25T12:09:55.836Z,31.23
2018-03-25T12:12:32.168Z,32.03
2018-03-25T12:15:02.033Z,27.43
2018-03-25T12:17:32.577Z,30.70
2018-03-25T12:20:02.394Z,30.47
2018-03-25T12:22:32.241Z,36.23
2018-03-25T12:25:02.073Z,31.80
2018-03-25T12:27:31.795Z,33.07
2018-03-25T12:30:02.500Z,33.90
2018-03-25T12:32:32.329Z,37.97
2018-03-25T12:35:02.145Z,32.10
2018-03-25T12:37:32.222Z,35.07
2018-03-25T12:40:02.042Z,35.30
2018-03-25T12:42:31.921Z,36.97
2018-03-25T12:45:02.535Z,34.07
2018-03-25T12:47:33.130Z,31.53
2018-03-25T12:50:04.026Z,32.93
2018-03-25T12:52:33.863Z,31.00
2018-03-25T12:55:03.964Z,30.17
2018-03-25T12:57:33.704Z,31.50
2018-03-25T13:00:03.873Z,36.43
2018-03-25T13:02:34.640Z,29.67
2018-03-25T13:05:04.671Z,31.17
2018-03-25T13:07:34.548Z,34.27
2018-03-25T13:10:05.499Z,33.47
2018-03-25T13:12:35.438Z,36.73
2018-03-25T13:15:05.529Z,31.83
2018-03-25T13:17:41.875Z,34.70
2018-03-25T13:20:11.890Z,29.37
2018-03-25T13:25:43.403Z,27.63
2018-03-25T13:28:13.373Z,31.83
2018-03-25T13:30:44.388Z,30.83
2018-03-25T13:33:14.258Z,30.97
2018-03-25T13:35:45.161Z,28.03
2018-03-25T13:38:15.082Z,28.73
2018-03-25T13:40:44.789Z,29.50
2018-03-25T13:43:14.684Z,29.83
2018-03-25T13:45:44.459Z,31.60
2018-03-25T13:48:14.287Z,26.80
2018-03-25T13:50:45.775Z,28.57
2018-03-25T13:53:15.870Z,26.90
2018-03-25T13:55:45.729Z,27.80
2018-03-25T13:58:16.477Z,25.30
2018-03-25T14:00:46.561Z,25.00
2018-03-25T14:03:16.334Z,25.60
2018-03-25T14:05:46.359Z,27.70
2018-03-25T14:08:16.741Z,35.03
2018-03-25T14:10:47.502Z,28.13
2018-03-25T14:13:17.371Z,28.20
2018-03-25T14:15:47.177Z,29.53
2018-03-25T14:18:17.220Z,28.33
2018-03-25T14:20:47.921Z,25.30
2018-03-25T14:23:17.782Z,27.90
2018-03-25T14:25:47.580Z,24.90
2018-03-25T14:28:18.156Z,28.47
2018-03-25T14:30:47.884Z,28.87
2018-03-25T14:33:17.740Z,30.43
2018-03-25T14:35:48.245Z,29.73
2018-03-25T14:38:17.976Z,28.43
2018-03-25T14:40:48.949Z,28.90
2018-03-25T14:43:18.905Z,29.93
2018-03-25T14:45:48.642Z,29.20
2018-03-25T14:48:19.138Z,29.13
2018-03-25T14:50:49.305Z,30.70
2018-03-25T14:53:19.234Z,29.67
2018-03-25T14:55:49.222Z,29.47
2018-03-25T14:58:19.868Z,30.80
2018-03-25T15:00:52.474Z,31.93
2018-03-25T15:03:22.480Z,36.90
2018-03-25T15:05:52.517Z,28.87
2018-03-25T15:08:22.597Z,31.23
2018-03-25T15:10:53.050Z,27.40
2018-03-25T15:13:22.833Z,31.87
2018-03-25T15:15:53.335Z,31.30
2018-03-25T15:18:23.174Z,29.13
2018-03-25T15:20:54.074Z,27.57
2018-03-25T15:23:23.841Z,33.77
2018-03-25T15:25:54.022Z,29.97
2018-03-25T15:28:23.905Z,26.90
2018-03-25T15:30:53.693Z,28.63
2018-03-25T15:33:23.550Z,27.83
2018-03-25T15:35:53.486Z,28.73
2018-03-25T15:38:24.047Z,26.77
2018-03-25T15:40:53.794Z,26.47
2018-03-25T15:43:24.098Z,27.53
2018-03-25T15:45:53.993Z,27.63
2018-03-25T15:48:23.833Z,24.70
2018-03-25T15:50:53.839Z,26.50
2018-03-25T15:53:23.601Z,23.83
2018-03-25T15:55:54.437Z,25.30
2018-03-25T15:58:24.441Z,25.30
2018-03-25T16:00:54.546Z,25.97
2018-03-25T16:03:24.229Z,26.63
2018-03-25T16:05:54.415Z,28.87
2018-03-25T16:08:25.166Z,28.20
2018-03-25T16:10:56.002Z,26.10
2018-03-25T16:13:26.718Z,26.57
2018-03-25T16:15:57.546Z,28.53
2018-03-25T16:18:27.612Z,29.10
2018-03-25T16:20:57.376Z,27.57
2018-03-25T16:23:27.172Z,30.80
2018-03-25T16:25:57.008Z,26.03
2018-03-25T16:28:28.392Z,28.60
2018-03-25T16:30:58.819Z,27.87
2018-03-25T16:33:28.523Z,28.73
2018-03-25T16:35:58.853Z,26.97
2018-03-25T16:38:28.998Z,24.30
2018-03-25T16:40:58.777Z,27.83
2018-03-25T16:43:28.718Z,27.50
2018-03-25T16:45:58.708Z,28.33
2018-03-25T16:48:29.214Z,27.33
2018-03-25T16:50:59.032Z,28.73
2018-03-25T16:53:29.829Z,26.57
2018-03-25T16:55:59.749Z,32.77
2018-03-25T16:58:29.576Z,29.70
2018-03-25T17:00:59.469Z,27.67
2018-03-25T17:03:29.525Z,27.63
2018-03-25T17:06:00.205Z,29.53
2018-03-25T17:08:30.266Z,28.17
2018-03-25T17:11:01.766Z,29.00
2018-03-25T17:13:32.506Z,26.60
2018-03-25T17:16:02.589Z,26.83
2018-03-25T17:18:33.106Z,26.53
2018-03-25T17:21:03.000Z,25.57
2018-03-25T17:23:33.609Z,29.63
2018-03-25T17:26:03.748Z,27.50
2018-03-25T17:28:33.573Z,28.87
2018-03-25T17:31:03.413Z,28.33
2018-03-25T17:33:34.158Z,25.17
2018-03-25T17:36:04.979Z,26.30
2018-03-25T17:38:35.690Z,26.67
2018-03-25T17:41:05.564Z,22.70
2018-03-25T17:43:35.417Z,23.33
2018-03-25T17:46:05.531Z,24.57
2018-03-25T17:48:35.432Z,22.27
2018-03-25T17:51:05.373Z,25.60
2018-03-25T17:53:35.224Z,24.13
2018-03-25T17:56:05.341Z,26.43
2018-03-25T17:58:35.875Z,24.27
2018-03-25T18:01:06.136Z,24.67
2018-03-25T18:03:35.929Z,24.30
2018-03-25T18:06:06.270Z,27.17
2018-03-25T18:08:36.348Z,26.57
2018-03-25T18:11:07.173Z,22.57
2018-03-25T18:13:38.305Z,25.03
2018-03-25T18:16:08.362Z,26.07
2018-03-25T18:18:38.141Z,26.13
2018-03-25T18:21:08.969Z,27.60
2018-03-25T18:23:38.923Z,26.93
2018-03-25T18:26:08.782Z,24.17
2018-03-25T18:28:38.874Z,27.10
2018-03-25T18:31:08.776Z,26.00
2018-03-25T18:33:38.565Z,26.73
2018-03-25T18:36:09.185Z,24.43
2018-03-25T18:38:39.848Z,27.50
2018-03-25T18:41:09.676Z,24.10
2018-03-25T18:43:39.625Z,26.93
2018-03-25T18:46:09.953Z,27.03
2018-03-25T18:48:39.848Z,24.43
2018-03-25T18:51:09.649Z,25.37
2018-03-25T18:53:39.575Z,26.13
2018-03-25T18:56:09.510Z,31.60
2018-03-25T18:58:39.958Z,25.23
2018-03-25T19:01:10.298Z,26.33
2018-03-25T19:03:41.363Z,29.10
2018-03-25T19:06:11.273Z,29.83
2018-03-25T19:08:41.113Z,28.73
2018-03-25T19:11:11.154Z,30.20
2018-03-25T19:13:41.037Z,32.57
2018-03-25T19:16:11.104Z,33.10
2018-03-25T19:18:41.013Z,32.50
2018-03-25T19:21:10.853Z,31.13
2018-03-25T19:23:41.526Z,32.77
2018-03-25T19:26:11.856Z,32.33
2018-03-25T19:28:42.526Z,33.90
2018-03-25T19:31:13.175Z,33.30
2018-03-25T19:33:44.023Z,32.97
2018-03-25T19:36:14.402Z,32.23
2018-03-25T19:38:44.516Z,33.07
2018-03-25T19:41:14.738Z,40.67
2018-03-25T19:43:44.564Z,35.23
2018-03-25T19:46:14.399Z,32.20
2018-03-25T19:48:44.880Z,31.73
2018-03-25T19:51:15.055Z,33.87
2018-03-25T19:53:45.849Z,34.43
2018-03-25T19:56:15.915Z,35.43
2018-03-25T19:58:46.623Z,32.97
2018-03-25T20:01:17.486Z,36.70
2018-03-25T20:03:47.386Z,33.03
2018-03-25T20:06:18.104Z,36.07
2018-03-25T20:08:48.091Z,37.23
2018-03-25T20:11:20.900Z,33.57
2018-03-25T20:13:50.727Z,31.70
2018-03-25T20:16:21.578Z,35.30
2018-03-25T20:18:52.196Z,33.30
2018-03-25T20:21:23.217Z,34.37
2018-03-25T20:23:53.000Z,33.00
2018-03-25T20:26:22.838Z,32.70
2018-03-25T20:28:52.805Z,33.73
2018-03-25T20:31:22.649Z,39.83
2018-03-25T20:33:52.384Z,33.47
2018-03-25T20:36:22.285Z,35.83
2018-03-25T20:38:52.117Z,36.63
2018-03-25T20:41:22.058Z,37.07
2018-03-25T20:43:52.936Z,38.90
2018-03-25T20:46:22.686Z,36.03
2018-03-25T20:48:53.212Z,35.70
2018-03-25T20:51:22.961Z,34.10
2018-03-25T20:53:52.855Z,35.53
2018-03-25T20:56:22.748Z,36.33
2018-03-25T20:58:52.822Z,38.77
2018-03-25T21:01:22.860Z,36.23
2018-03-25T21:03:52.695Z,37.00
2018-03-25T21:06:22.776Z,35.10
2018-03-25T21:08:52.549Z,35.60
2018-03-25T21:11:22.357Z,37.03
2018-03-25T21:13:52.449Z,40.67
2018-03-25T21:16:22.208Z,35.50
2018-03-25T21:18:52.908Z,35.63
2018-03-25T21:21:22.858Z,37.60
2018-03-25T21:23:53.375Z,36.20
2018-03-25T21:26:23.948Z,37.40
2018-03-25T21:28:54.153Z,37.07
2018-03-25T21:31:24.022Z,37.20
2018-03-25T21:33:54.010Z,35.03
2018-03-25T21:36:23.822Z,35.53
2018-03-25T21:38:53.952Z,34.17
2018-03-25T21:41:23.828Z,35.77
2018-03-25T21:43:53.753Z,34.07
2018-03-25T21:46:23.585Z,38.23
2018-03-25T21:48:53.642Z,34.83
2018-03-25T21:51:23.492Z,37.27
2018-03-25T21:53:53.444Z,38.73
2018-03-25T21:56:23.349Z,38.03
2018-03-25T21:58:53.206Z,36.43
2018-03-25T22:01:22.966Z,38.97
2018-03-25T22:03:52.915Z,39.73
2018-03-25T22:06:22.963Z,37.77
2018-03-25T22:08:53.597Z,43.73
2018-03-25T22:11:24.262Z,47.67
2018-03-25T22:13:54.256Z,46.23
2018-03-25T22:16:24.656Z,52.00
2018-03-25T22:19:01.131Z,54.27
2018-03-25T22:21:31.680Z,50.80
2018-03-25T22:24:01.606Z,58.30
2018-03-25T22:26:31.607Z,59.63
2018-03-25T22:29:02.175Z,53.43
2018-03-25T22:31:31.976Z,58.20
2018-03-25T22:34:02.004Z,60.50
2018-03-25T22:36:32.068Z,60.67
2018-03-25T22:39:02.296Z,62.57
2018-03-25T22:41:32.841Z,57.40
2018-03-25T22:44:02.856Z,65.53
2018-03-25T22:46:32.874Z,59.53
2018-03-25T22:49:03.492Z,62.07
2018-03-25T22:51:34.510Z,65.17
2018-03-25T22:54:04.313Z,60.40
2018-03-25T22:56:34.208Z,63.57
2018-03-25T22:59:04.013Z,70.67
2018-03-25T23:01:33.777Z,67.27
2018-03-25T23:04:04.509Z,68.10
2018-03-25T23:06:34.360Z,77.53
2018-03-25T23:09:04.556Z,76.50
2018-03-25T23:11:35.165Z,79.27
2018-03-25T23:14:05.415Z,76.87
2018-03-25T23:16:36.177Z,85.87
2018-03-25T23:19:06.051Z,77.90
2018-03-25T23:21:36.109Z,81.27
2018-03-25T23:24:06.149Z,80.37
2018-03-25T23:26:35.995Z,84.53
2018-03-25T23:29:06.047Z,77.70
2018-03-25T23:31:36.147Z,83.03
2018-03-25T23:34:06.441Z,78.00
2018-03-25T23:36:36.539Z,81.57
2018-03-25T23:39:07.088Z,73.97
2018-03-25T23:41:36.824Z,78.73
2018-03-25T23:44:07.048Z,81.13
2018-03-25T23:46:38.044Z,79.57
2018-03-25T23:49:08.204Z,81.07
2018-03-25T23:51:38.064Z,77.83
2018-03-25T23:54:07.797Z,85.33
2018-03-25T23:56:37.610Z,85.63
2018-03-25T23:59:07.556Z,91.27
